sensor_id;sensor_type;location;lat;lon;timestamp;temperature;humidity
20985;DHT22;10651;47.552;7.606;2024-03-23T09:07:44;13.20;99.90
20985;DHT22;10651;47.552;7.606;2024-03-23T09:10:09;13.00;99.90
20985;DHT22;10651;47.552;7.606;2024-03-23T09:12:45;12.80;99.90
20985;DHT22;10651;47.552;7.606;2024-03-23T09:15:11;13.10;99.90
20985;DHT22;10651;47.552;7.606;2024-03-23T09:17:39;13.80;99.90
20985;DHT22;10651;47.552;7.606;2024-03-23T09:20:10;14.30;99.90
20985;DHT22;10651;47.552;7.606;2024-03-23T09:29:56;13.90;99.90
20985;DHT22;10651;47.552;7.606;2024-03-23T09:32:25;13.90;99.90
20985;DHT22;10651;47.552;7.606;2024-03-23T09:34:56;13.70;99.90
20985;DHT22;10651;47.552;7.606;2024-03-23T09:37:22;13.50;99.90
20985;DHT22;10651;47.552;7.606;2024-03-23T09:39:48;13.90;99.90
20985;DHT22;10651;47.552;7.606;2024-03-23T09:42:16;13.90;99.90
20985;DHT22;10651;47.552;7.606;2024-03-23T09:44:51;13.70;99.90
20985;DHT22;10651;47.552;7.606;2024-03-23T09:47:17;13.70;99.90
20985;DHT22;10651;47.552;7.606;2024-03-23T09:49:45;13.90;99.90
20985;DHT22;10651;47.552;7.606;2024-03-23T09:52:11;13.90;99.90
20985;DHT22;10651;47.552;7.606;2024-03-23T09:54:55;13.90;99.90
20985;DHT22;10651;47.552;7.606;2024-03-23T09:57:23;14.10;99.90
20985;DHT22;10651;47.552;7.606;2024-03-23T09:59:51;14.60;99.90
20985;DHT22;10651;47.552;7.606;2024-03-23T10:02:21;14.90;99.90
20985;DHT22;10651;47.552;7.606;2024-03-23T10:04:49;15.40;99.90
20985;DHT22;10651;47.552;7.606;2024-03-23T10:07:21;15.50;99.90
20985;DHT22;10651;47.552;7.606;2024-03-23T10:09:50;15.30;99.90
20985;DHT22;10651;47.552;7.606;2024-03-23T10:12:22;15.30;99.90
20985;DHT22;10651;47.552;7.606;2024-03-23T10:14:49;15.30;99.90
20985;DHT22;10651;47.552;7.606;2024-03-23T10:17:23;15.40;99.90
20985;DHT22;10651;47.552;7.606;2024-03-23T10:19:50;15.40;99.90
20985;DHT22;10651;47.552;7.606;2024-03-23T10:22:22;15.40;99.90
20985;DHT22;10651;47.552;7.606;2024-03-23T10:24:53;15.60;99.90
20985;DHT22;10651;47.552;7.606;2024-03-23T10:27:22;16.00;99.90
20985;DHT22;10651;47.552;7.606;2024-03-23T10:29:48;15.60;99.90
20985;DHT22;10651;47.552;7.606;2024-03-23T10:35:18;16.80;99.90
20985;DHT22;10651;47.552;7.606;2024-03-23T10:37:47;16.60;99.90
20985;DHT22;10651;47.552;7.606;2024-03-23T10:40:39;16.70;99.90
20985;DHT22;10651;47.552;7.606;2024-03-23T10:43:14;16.10;99.90
20985;DHT22;10651;47.552;7.606;2024-03-23T10:45:40;15.80;99.90
20985;DHT22;10651;47.552;7.606;2024-03-23T10:48:06;16.00;99.90
20985;DHT22;10651;47.552;7.606;2024-03-23T10:50:32;16.40;99.90
20985;DHT22;10651;47.552;7.606;2024-03-23T10:53:31;15.70;99.90
20985;DHT22;10651;47.552;7.606;2024-03-23T10:56:02;14.70;99.90
20985;DHT22;10651;47.552;7.606;2024-03-23T10:58:41;14.50;99.90
20985;DHT22;10651;47.552;7.606;2024-03-23T11:01:12;14.30;99.90
20985;DHT22;10651;47.552;7.606;2024-03-23T11:03:45;13.90;99.90
20985;DHT22;10651;47.552;7.606;2024-03-23T11:06:37;13.10;99.90
20985;DHT22;10651;47.552;7.606;2024-03-23T11:09:10;11.90;99.90
20985;DHT22;10651;47.552;7.606;2024-03-23T11:11:50;11.20;99.90
20985;DHT22;10651;47.552;7.606;2024-03-23T11:14:22;10.90;99.90
20985;DHT22;10651;47.552;7.606;2024-03-23T11:17:08;10.70;99.90
20985;DHT22;10651;47.552;7.606;2024-03-23T11:19:38;11.20;99.90
20985;DHT22;10651;47.552;7.606;2024-03-23T11:22:04;12.60;99.90
20985;DHT22;10651;47.552;7.606;2024-03-23T11:24:36;12.30;99.90
20985;DHT22;10651;47.552;7.606;2024-03-23T11:27:02;12.20;99.90
20985;DHT22;10651;47.552;7.606;2024-03-23T11:29:40;11.90;99.90
20985;DHT22;10651;47.552;7.606;2024-03-23T11:32:10;12.30;99.90
20985;DHT22;10651;47.552;7.606;2024-03-23T11:34:35;12.90;99.90
20985;DHT22;10651;47.552;7.606;2024-03-23T11:37:05;14.20;99.90
20985;DHT22;10651;47.552;7.606;2024-03-23T11:39:31;18.60;99.90
20985;DHT22;10651;47.552;7.606;2024-03-23T11:41:57;24.00;99.90
20985;DHT22;10651;47.552;7.606;2024-03-23T11:44:51;25.20;99.90
20985;DHT22;10651;47.552;7.606;2024-03-23T11:47:35;28.00;95.10
20985;DHT22;10651;47.552;7.606;2024-03-23T11:50:03;27.80;89.60
20985;DHT22;10651;47.552;7.606;2024-03-23T11:52:30;28.20;88.30
20985;DHT22;10651;47.552;7.606;2024-03-23T11:55:08;28.60;81.70
20985;DHT22;10651;47.552;7.606;2024-03-23T11:57:34;30.20;75.50
20985;DHT22;10651;47.552;7.606;2024-03-23T12:00:00;31.70;74.00
20985;DHT22;10651;47.552;7.606;2024-03-23T12:02:25;31.80;70.80
20985;DHT22;10651;47.552;7.606;2024-03-23T12:04:51;30.60;69.50
20985;DHT22;10651;47.552;7.606;2024-03-23T12:07:20;31.40;68.80
20985;DHT22;10651;47.552;7.606;2024-03-23T12:10:05;31.20;66.00
20985;DHT22;10651;47.552;7.606;2024-03-23T12:12:33;33.10;66.90
20985;DHT22;10651;47.552;7.606;2024-03-23T12:15:06;29.40;67.30
20985;DHT22;10651;47.552;7.606;2024-03-23T12:17:33;24.80;67.50
20985;DHT22;10651;47.552;7.606;2024-03-23T12:20:00;21.20;78.30
20985;DHT22;10651;47.552;7.606;2024-03-23T12:22:26;18.60;85.00
20985;DHT22;10651;47.552;7.606;2024-03-23T12:24:52;17.30;90.40
20985;DHT22;10651;47.552;7.606;2024-03-23T12:27:18;17.00;91.30
20985;DHT22;10651;47.552;7.606;2024-03-23T12:29:43;17.20;93.30
20985;DHT22;10651;47.552;7.606;2024-03-23T12:32:11;17.60;95.60
20985;DHT22;10651;47.552;7.606;2024-03-23T12:34:37;23.60;91.80
20985;DHT22;10651;47.552;7.606;2024-03-23T12:37:03;28.90;84.00
20985;DHT22;10651;47.552;7.606;2024-03-23T12:39:28;29.40;72.20
20985;DHT22;10651;47.552;7.606;2024-03-23T12:41:55;30.90;67.10
20985;DHT22;10651;47.552;7.606;2024-03-23T12:44:21;30.60;63.30
20985;DHT22;10651;47.552;7.606;2024-03-23T12:46:47;32.80;63.20
20985;DHT22;10651;47.552;7.606;2024-03-23T12:49:12;33.70;56.80
20985;DHT22;10651;47.552;7.606;2024-03-23T12:51:38;33.30;53.40
20985;DHT22;10651;47.552;7.606;2024-03-23T12:54:04;30.90;55.10
20985;DHT22;10651;47.552;7.606;2024-03-23T12:56:30;28.30;56.50
20985;DHT22;10651;47.552;7.606;2024-03-23T12:58:56;30.30;54.70
20985;DHT22;10651;47.552;7.606;2024-03-23T13:01:23;32.50;53.00
20985;DHT22;10651;47.552;7.606;2024-03-23T13:03:52;32.50;50.70
20985;DHT22;10651;47.552;7.606;2024-03-23T13:06:18;27.90;50.90
20985;DHT22;10651;47.552;7.606;2024-03-23T13:08:45;24.80;57.00
20985;DHT22;10651;47.552;7.606;2024-03-23T13:11:11;28.70;53.50
20985;DHT22;10651;47.552;7.606;2024-03-23T13:13:37;30.50;51.60
20985;DHT22;10651;47.552;7.606;2024-03-23T13:16:04;32.50;51.00
20985;DHT22;10651;47.552;7.606;2024-03-23T13:18:31;32.60;48.40
20985;DHT22;10651;47.552;7.606;2024-03-23T13:20:57;32.80;48.50
20985;DHT22;10651;47.552;7.606;2024-03-23T13:23:23;28.60;48.80
20985;DHT22;10651;47.552;7.606;2024-03-23T13:25:52;28.50;52.00
20985;DHT22;10651;47.552;7.606;2024-03-23T13:28:21;26.40;51.10
20985;DHT22;10651;47.552;7.606;2024-03-23T13:30:55;24.50;53.60
20985;DHT22;10651;47.552;7.606;2024-03-23T13:33:21;28.00;53.80
20985;DHT22;10651;47.552;7.606;2024-03-23T13:35:53;30.80;51.60
20985;DHT22;10651;47.552;7.606;2024-03-23T13:38:20;31.90;46.90
20985;DHT22;10651;47.552;7.606;2024-03-23T13:40:53;32.50;47.50
20985;DHT22;10651;47.552;7.606;2024-03-23T13:43:19;34.00;46.90
20985;DHT22;10651;47.552;7.606;2024-03-23T13:45:48;33.10;44.60
20985;DHT22;10651;47.552;7.606;2024-03-23T13:48:15;33.80;43.80
20985;DHT22;10651;47.552;7.606;2024-03-23T13:50:41;33.50;44.20
20985;DHT22;10651;47.552;7.606;2024-03-23T13:53:06;34.70;43.50
20985;DHT22;10651;47.552;7.606;2024-03-23T13:55:34;34.60;42.70
20985;DHT22;10651;47.552;7.606;2024-03-23T13:57:59;34.90;41.90
20985;DHT22;10651;47.552;7.606;2024-03-23T14:00:25;36.30;41.90
20985;DHT22;10651;47.552;7.606;2024-03-23T14:02:50;35.30;42.00
20985;DHT22;10651;47.552;7.606;2024-03-23T14:05:16;32.50;42.00
20985;DHT22;10651;47.552;7.606;2024-03-23T14:07:42;31.80;44.00
20985;DHT22;10651;47.552;7.606;2024-03-23T14:10:08;31.80;42.90
20985;DHT22;10651;47.552;7.606;2024-03-23T14:12:37;32.00;44.60
20985;DHT22;10651;47.552;7.606;2024-03-23T14:15:06;33.30;43.40
20985;DHT22;10651;47.552;7.606;2024-03-23T14:17:32;33.90;42.90
20985;DHT22;10651;47.552;7.606;2024-03-23T14:19:58;32.40;42.60
20985;DHT22;10651;47.552;7.606;2024-03-23T14:22:29;26.50;45.00
20985;DHT22;10651;47.552;7.606;2024-03-23T14:24:55;28.30;46.20
20985;DHT22;10651;47.552;7.606;2024-03-23T14:27:20;29.40;45.70
20985;DHT22;10651;47.552;7.606;2024-03-23T14:29:47;26.70;45.70
20985;DHT22;10651;47.552;7.606;2024-03-23T14:32:13;24.50;47.30
20985;DHT22;10651;47.552;7.606;2024-03-23T14:34:40;22.40;51.00
20985;DHT22;10651;47.552;7.606;2024-03-23T14:37:06;21.60;51.60
20985;DHT22;10651;47.552;7.606;2024-03-23T14:39:32;21.00;52.70
20985;DHT22;10651;47.552;7.606;2024-03-23T14:42:03;20.00;54.60
20985;DHT22;10651;47.552;7.606;2024-03-23T14:44:29;19.40;55.20
20985;DHT22;10651;47.552;7.606;2024-03-23T14:46:55;18.90;55.60
20985;DHT22;10651;47.552;7.606;2024-03-23T14:49:23;19.10;56.40
20985;DHT22;10651;47.552;7.606;2024-03-23T14:51:49;18.90;57.30
20985;DHT22;10651;47.552;7.606;2024-03-23T14:54:15;18.50;57.70
20985;DHT22;10651;47.552;7.606;2024-03-23T14:56:41;18.00;58.40
20985;DHT22;10651;47.552;7.606;2024-03-23T14:59:07;17.70;59.70
20985;DHT22;10651;47.552;7.606;2024-03-23T15:01:33;17.10;65.10
20985;DHT22;10651;47.552;7.606;2024-03-23T15:04:00;16.50;71.20
20985;DHT22;10651;47.552;7.606;2024-03-23T15:06:25;15.90;76.00
20985;DHT22;10651;47.552;7.606;2024-03-23T15:08:51;15.50;78.90
20985;DHT22;10651;47.552;7.606;2024-03-23T15:11:17;15.80;79.90
20985;DHT22;10651;47.552;7.606;2024-03-23T15:13:45;16.50;79.90
20985;DHT22;10651;47.552;7.606;2024-03-23T15:16:16;16.90;78.30
20985;DHT22;10651;47.552;7.606;2024-03-23T15:18:43;16.90;77.00
20985;DHT22;10651;47.552;7.606;2024-03-23T15:21:08;16.40;77.30
20985;DHT22;10651;47.552;7.606;2024-03-23T15:23:36;16.00;76.20
20985;DHT22;10651;47.552;7.606;2024-03-23T15:26:03;16.00;76.70
20985;DHT22;10651;47.552;7.606;2024-03-23T15:28:30;15.70;77.00
20985;DHT22;10651;47.552;7.606;2024-03-23T15:31:30;15.60;76.60
20985;DHT22;10651;47.552;7.606;2024-03-23T15:34:07;15.30;76.30
20985;DHT22;10651;47.552;7.606;2024-03-23T15:36:36;15.00;76.50
20985;DHT22;10651;47.552;7.606;2024-03-23T15:39:04;14.90;75.70
20985;DHT22;10651;47.552;7.606;2024-03-23T15:41:30;15.10;76.20
20985;DHT22;10651;47.552;7.606;2024-03-23T15:43:56;15.50;76.20
20985;DHT22;10651;47.552;7.606;2024-03-23T15:46:22;15.70;78.30
20985;DHT22;10651;47.552;7.606;2024-03-23T15:48:47;15.40;78.00
20985;DHT22;10651;47.552;7.606;2024-03-23T15:51:14;15.70;79.20
20985;DHT22;10651;47.552;7.606;2024-03-23T15:53:40;15.20;78.40
20985;DHT22;10651;47.552;7.606;2024-03-23T15:56:06;15.10;79.40
20985;DHT22;10651;47.552;7.606;2024-03-23T15:58:33;15.00;79.30
20985;DHT22;10651;47.552;7.606;2024-03-23T16:01:05;15.00;78.70
20985;DHT22;10651;47.552;7.606;2024-03-23T16:03:32;14.90;79.30
20985;DHT22;10651;47.552;7.606;2024-03-23T16:06:02;14.90;78.90
20985;DHT22;10651;47.552;7.606;2024-03-23T16:08:29;14.80;80.10
20985;DHT22;10651;47.552;7.606;2024-03-23T16:11:03;14.50;81.00
20985;DHT22;10651;47.552;7.606;2024-03-23T16:13:29;14.30;81.50
20985;DHT22;10651;47.552;7.606;2024-03-23T16:15:56;14.10;82.70
20985;DHT22;10651;47.552;7.606;2024-03-23T16:18:23;14.00;83.00
20985;DHT22;10651;47.552;7.606;2024-03-23T16:21:03;14.10;83.10
20985;DHT22;10651;47.552;7.606;2024-03-23T16:23:29;13.90;81.90
20985;DHT22;10651;47.552;7.606;2024-03-23T16:25:56;13.60;83.20
20985;DHT22;10651;47.552;7.606;2024-03-23T16:28:28;13.30;85.90
20985;DHT22;10651;47.552;7.606;2024-03-23T16:33:27;12.90;90.30
20985;DHT22;10651;47.552;7.606;2024-03-23T16:36:09;12.40;91.90
20985;DHT22;10651;47.552;7.606;2024-03-23T16:38:38;12.40;92.50
20985;DHT22;10651;47.552;7.606;2024-03-23T16:41:10;12.30;93.50
20985;DHT22;10651;47.552;7.606;2024-03-23T16:43:38;12.10;94.00
20985;DHT22;10651;47.552;7.606;2024-03-23T16:46:08;12.10;94.70
20985;DHT22;10651;47.552;7.606;2024-03-23T16:48:37;11.70;97.40
20985;DHT22;10651;47.552;7.606;2024-03-23T16:51:06;11.40;98.30
20985;DHT22;10651;47.552;7.606;2024-03-23T16:53:33;11.40;98.30
20985;DHT22;10651;47.552;7.606;2024-03-23T16:56:03;11.50;99.00
20985;DHT22;10651;47.552;7.606;2024-03-23T16:58:34;11.30;99.70
20985;DHT22;10651;47.552;7.606;2024-03-23T17:03:50;11.10;99.90
20985;DHT22;10651;47.552;7.606;2024-03-23T17:06:17;10.90;99.90
20985;DHT22;10651;47.552;7.606;2024-03-23T17:08:44;11.00;99.90
20985;DHT22;10651;47.552;7.606;2024-03-23T17:11:10;11.00;99.90
20985;DHT22;10651;47.552;7.606;2024-03-23T17:13:43;10.90;99.90
20985;DHT22;10651;47.552;7.606;2024-03-23T17:16:09;10.80;99.90
20985;DHT22;10651;47.552;7.606;2024-03-23T17:18:38;10.80;99.90
20985;DHT22;10651;47.552;7.606;2024-03-23T17:21:04;10.90;99.90
20985;DHT22;10651;47.552;7.606;2024-03-23T17:23:30;11.10;99.90
20985;DHT22;10651;47.552;7.606;2024-03-23T17:25:59;11.20;99.90
20985;DHT22;10651;47.552;7.606;2024-03-23T17:28:26;11.30;99.90
20985;DHT22;10651;47.552;7.606;2024-03-23T17:30:52;11.20;99.90
20985;DHT22;10651;47.552;7.606;2024-03-23T17:33:18;11.20;99.90
20985;DHT22;10651;47.552;7.606;2024-03-23T17:35:44;11.10;99.90
20985;DHT22;10651;47.552;7.606;2024-03-23T17:38:11;11.00;99.90
20985;DHT22;10651;47.552;7.606;2024-03-23T17:40:36;10.90;99.90
20985;DHT22;10651;47.552;7.606;2024-03-23T17:43:02;11.00;99.90
20985;DHT22;10651;47.552;7.606;2024-03-23T17:45:28;11.00;99.90
20985;DHT22;10651;47.552;7.606;2024-03-23T17:47:54;11.00;99.90
20985;DHT22;10651;47.552;7.606;2024-03-23T17:50:22;11.00;99.90
20985;DHT22;10651;47.552;7.606;2024-03-23T17:52:47;10.80;99.90
20985;DHT22;10651;47.552;7.606;2024-03-23T17:55:13;10.90;99.90
20985;DHT22;10651;47.552;7.606;2024-03-23T17:57:39;10.70;99.90
20985;DHT22;10651;47.552;7.606;2024-03-23T18:00:05;10.70;99.90
20985;DHT22;10651;47.552;7.606;2024-03-23T18:02:34;10.60;99.90
20985;DHT22;10651;47.552;7.606;2024-03-23T18:05:03;10.60;99.90
20985;DHT22;10651;47.552;7.606;2024-03-23T18:07:30;10.60;99.90
20985;DHT22;10651;47.552;7.606;2024-03-23T18:09:55;10.50;99.90
20985;DHT22;10651;47.552;7.606;2024-03-23T18:12:21;10.50;99.90
20985;DHT22;10651;47.552;7.606;2024-03-23T18:14:49;10.50;99.90
20985;DHT22;10651;47.552;7.606;2024-03-23T18:17:14;10.50;99.90
20985;DHT22;10651;47.552;7.606;2024-03-23T18:19:40;10.40;99.90
20985;DHT22;10651;47.552;7.606;2024-03-23T18:22:06;10.30;99.90
20985;DHT22;10651;47.552;7.606;2024-03-23T18:24:32;10.30;99.90
20985;DHT22;10651;47.552;7.606;2024-03-23T18:26:57;10.20;99.90
20985;DHT22;10651;47.552;7.606;2024-03-23T18:29:23;10.20;99.90
20985;DHT22;10651;47.552;7.606;2024-03-23T18:31:49;10.20;99.90
20985;DHT22;10651;47.552;7.606;2024-03-23T18:34:16;10.20;99.90
20985;DHT22;10651;47.552;7.606;2024-03-23T18:36:41;10.30;99.90
20985;DHT22;10651;47.552;7.606;2024-03-23T18:39:07;10.40;99.90
20985;DHT22;10651;47.552;7.606;2024-03-23T18:41:33;10.30;99.90
20985;DHT22;10651;47.552;7.606;2024-03-23T18:43:59;10.40;99.90
20985;DHT22;10651;47.552;7.606;2024-03-23T18:46:26;10.30;99.90
20985;DHT22;10651;47.552;7.606;2024-03-23T18:48:53;10.30;99.90
20985;DHT22;10651;47.552;7.606;2024-03-23T18:51:19;10.40;99.90
20985;DHT22;10651;47.552;7.606;2024-03-23T18:53:45;10.30;99.90
20985;DHT22;10651;47.552;7.606;2024-03-23T18:56:11;10.20;99.90
20985;DHT22;10651;47.552;7.606;2024-03-23T18:58:37;10.20;99.90
20985;DHT22;10651;47.552;7.606;2024-03-23T19:01:04;10.30;99.90
20985;DHT22;10651;47.552;7.606;2024-03-23T19:03:31;10.30;99.90
20985;DHT22;10651;47.552;7.606;2024-03-23T19:06:00;10.30;99.90
20985;DHT22;10651;47.552;7.606;2024-03-23T19:08:27;10.30;99.90
20985;DHT22;10651;47.552;7.606;2024-03-23T19:11:00;10.40;99.90
20985;DHT22;10651;47.552;7.606;2024-03-23T19:13:28;10.40;99.90
20985;DHT22;10651;47.552;7.606;2024-03-23T19:15:55;10.40;99.90
20985;DHT22;10651;47.552;7.606;2024-03-23T19:18:21;10.20;99.90
20985;DHT22;10651;47.552;7.606;2024-03-23T19:20:57;9.80;99.90
20985;DHT22;10651;47.552;7.606;2024-03-23T19:23:23;9.60;99.90
20985;DHT22;10651;47.552;7.606;2024-03-23T19:26:00;9.30;99.90
20985;DHT22;10651;47.552;7.606;2024-03-23T19:28:27;9.30;99.90
20985;DHT22;10651;47.552;7.606;2024-03-23T19:30:54;9.10;99.90
20985;DHT22;10651;47.552;7.606;2024-03-23T19:33:21;8.70;99.90
20985;DHT22;10651;47.552;7.606;2024-03-23T19:35:47;8.80;99.90
20985;DHT22;10651;47.552;7.606;2024-03-23T19:38:19;8.90;99.90
20985;DHT22;10651;47.552;7.606;2024-03-23T19:40:52;8.90;99.90
20985;DHT22;10651;47.552;7.606;2024-03-23T19:43:17;9.00;99.90
20985;DHT22;10651;47.552;7.606;2024-03-23T19:45:43;9.00;99.90
20985;DHT22;10651;47.552;7.606;2024-03-23T19:48:09;8.90;99.90
20985;DHT22;10651;47.552;7.606;2024-03-23T19:50:35;8.90;99.90
20985;DHT22;10651;47.552;7.606;2024-03-23T19:53:01;9.00;99.90
20985;DHT22;10651;47.552;7.606;2024-03-23T19:55:28;8.90;99.90
20985;DHT22;10651;47.552;7.606;2024-03-23T19:57:53;9.00;99.90
20985;DHT22;10651;47.552;7.606;2024-03-23T20:00:19;8.80;99.90
20985;DHT22;10651;47.552;7.606;2024-03-23T20:02:45;8.80;99.90
20985;DHT22;10651;47.552;7.606;2024-03-23T20:05:11;8.90;99.90
20985;DHT22;10651;47.552;7.606;2024-03-23T20:07:37;9.00;99.90
20985;DHT22;10651;47.552;7.606;2024-03-23T20:10:03;8.90;99.90
20985;DHT22;10651;47.552;7.606;2024-03-23T20:12:29;8.90;99.90
20985;DHT22;10651;47.552;7.606;2024-03-23T20:14:54;8.90;99.90
20985;DHT22;10651;47.552;7.606;2024-03-23T20:17:20;8.80;99.90
20985;DHT22;10651;47.552;7.606;2024-03-23T20:19:48;8.90;99.90
20985;DHT22;10651;47.552;7.606;2024-03-23T20:22:14;8.90;99.90
20985;DHT22;10651;47.552;7.606;2024-03-23T20:24:39;8.90;99.90
20985;DHT22;10651;47.552;7.606;2024-03-23T20:27:05;9.00;99.90
20985;DHT22;10651;47.552;7.606;2024-03-23T20:29:31;8.80;99.90
20985;DHT22;10651;47.552;7.606;2024-03-23T20:31:56;8.90;99.90
20985;DHT22;10651;47.552;7.606;2024-03-23T20:34:22;8.90;99.90
20985;DHT22;10651;47.552;7.606;2024-03-23T20:36:47;8.90;99.90
20985;DHT22;10651;47.552;7.606;2024-03-23T20:39:13;9.00;99.90
20985;DHT22;10651;47.552;7.606;2024-03-23T20:41:39;9.10;99.90
20985;DHT22;10651;47.552;7.606;2024-03-23T20:44:04;9.10;99.90
20985;DHT22;10651;47.552;7.606;2024-03-23T20:46:30;9.10;99.90
20985;DHT22;10651;47.552;7.606;2024-03-23T20:48:56;9.10;99.90
20985;DHT22;10651;47.552;7.606;2024-03-23T20:51:21;9.10;99.90
20985;DHT22;10651;47.552;7.606;2024-03-23T20:53:47;9.00;99.90
20985;DHT22;10651;47.552;7.606;2024-03-23T20:56:13;8.90;99.90
20985;DHT22;10651;47.552;7.606;2024-03-23T20:58:38;8.80;99.90
20985;DHT22;10651;47.552;7.606;2024-03-23T21:01:06;8.60;99.90
20985;DHT22;10651;47.552;7.606;2024-03-23T21:03:34;8.70;99.90
20985;DHT22;10651;47.552;7.606;2024-03-23T21:06:01;8.60;99.90
20985;DHT22;10651;47.552;7.606;2024-03-23T21:08:32;8.50;99.90
20985;DHT22;10651;47.552;7.606;2024-03-23T21:10:57;8.50;99.90
20985;DHT22;10651;47.552;7.606;2024-03-23T21:13:23;8.50;99.90
20985;DHT22;10651;47.552;7.606;2024-03-23T21:15:53;8.50;99.90
20985;DHT22;10651;47.552;7.606;2024-03-23T21:18:25;8.50;99.90
20985;DHT22;10651;47.552;7.606;2024-03-23T21:20:59;8.50;99.90
20985;DHT22;10651;47.552;7.606;2024-03-23T21:23:26;8.50;99.90
20985;DHT22;10651;47.552;7.606;2024-03-23T21:26:03;8.50;99.90
20985;DHT22;10651;47.552;7.606;2024-03-23T21:28:29;8.50;99.90
20985;DHT22;10651;47.552;7.606;2024-03-23T21:30:55;8.40;99.90
20985;DHT22;10651;47.552;7.606;2024-03-23T21:33:22;8.40;99.90
20985;DHT22;10651;47.552;7.606;2024-03-23T21:35:57;8.30;99.90
20985;DHT22;10651;47.552;7.606;2024-03-23T21:38:29;8.30;99.90
20985;DHT22;10651;47.552;7.606;2024-03-23T21:40:56;8.30;99.90
20985;DHT22;10651;47.552;7.606;2024-03-23T21:43:22;8.30;99.90
20985;DHT22;10651;47.552;7.606;2024-03-23T21:46:01;8.30;99.90
20985;DHT22;10651;47.552;7.606;2024-03-23T21:48:28;8.30;99.90
20985;DHT22;10651;47.552;7.606;2024-03-23T21:51:02;8.40;99.90
20985;DHT22;10651;47.552;7.606;2024-03-23T21:53:28;8.40;99.90
20985;DHT22;10651;47.552;7.606;2024-03-23T21:55:54;8.40;99.90
20985;DHT22;10651;47.552;7.606;2024-03-23T21:58:24;8.30;99.90
20985;DHT22;10651;47.552;7.606;2024-03-23T22:00:54;8.30;99.90
20985;DHT22;10651;47.552;7.606;2024-03-23T22:03:19;8.30;99.90
20985;DHT22;10651;47.552;7.606;2024-03-23T22:05:53;8.40;99.90
20985;DHT22;10651;47.552;7.606;2024-03-23T22:08:19;8.40;99.90
20985;DHT22;10651;47.552;7.606;2024-03-23T22:10:44;8.30;99.90
20985;DHT22;10651;47.552;7.606;2024-03-23T22:13:13;8.20;99.90
20985;DHT22;10651;47.552;7.606;2024-03-23T22:15:39;8.10;99.90
20985;DHT22;10651;47.552;7.606;2024-03-23T22:18:04;8.20;99.90
20985;DHT22;10651;47.552;7.606;2024-03-23T22:20:31;8.30;99.90
20985;DHT22;10651;47.552;7.606;2024-03-23T22:22:57;8.30;99.90
20985;DHT22;10651;47.552;7.606;2024-03-23T22:25:23;8.30;99.90
20985;DHT22;10651;47.552;7.606;2024-03-23T22:27:49;8.30;99.90
20985;DHT22;10651;47.552;7.606;2024-03-23T22:30:15;8.40;99.90
20985;DHT22;10651;47.552;7.606;2024-03-23T22:32:43;8.50;99.90
20985;DHT22;10651;47.552;7.606;2024-03-23T22:35:09;8.40;99.90
20985;DHT22;10651;47.552;7.606;2024-03-23T22:37:35;8.50;99.90
20985;DHT22;10651;47.552;7.606;2024-03-23T22:40:01;8.50;99.90
20985;DHT22;10651;47.552;7.606;2024-03-23T22:42:26;8.60;99.90
20985;DHT22;10651;47.552;7.606;2024-03-23T22:44:52;8.50;99.90
20985;DHT22;10651;47.552;7.606;2024-03-23T22:47:18;8.50;99.90
20985;DHT22;10651;47.552;7.606;2024-03-23T22:49:44;8.60;99.90
20985;DHT22;10651;47.552;7.606;2024-03-23T22:52:09;8.70;99.90
20985;DHT22;10651;47.552;7.606;2024-03-23T22:54:35;8.60;99.90
20985;DHT22;10651;47.552;7.606;2024-03-23T22:57:01;8.80;99.90
20985;DHT22;10651;47.552;7.606;2024-03-23T22:59:26;8.80;99.90
20985;DHT22;10651;47.552;7.606;2024-03-23T23:01:52;8.80;99.90
20985;DHT22;10651;47.552;7.606;2024-03-23T23:04:18;8.80;99.90
20985;DHT22;10651;47.552;7.606;2024-03-23T23:06:45;8.80;99.90
20985;DHT22;10651;47.552;7.606;2024-03-23T23:09:10;8.80;99.90
20985;DHT22;10651;47.552;7.606;2024-03-23T23:11:37;8.90;99.90
20985;DHT22;10651;47.552;7.606;2024-03-23T23:14:03;8.90;99.90
20985;DHT22;10651;47.552;7.606;2024-03-23T23:16:30;9.00;99.90
20985;DHT22;10651;47.552;7.606;2024-03-23T23:18:55;9.00;99.90
